Itapecerica da Serra, Brazil
Current Conditions -  °F | °C
As of 10:00 AM on Wednesday 22 Oct 2014 (Local Time) from SBSP Reporting Station
Broken Clouds Broken Clouds  
Wind Chill: 64°   Ceiling: 1500
Heat Index: 64°   Visibility: 6mi
Dew Point: 54°   Wind: 9mph
Humidity: 68%   Direction: 120°ESE
Pressure: 30.24"   Gusts: NA
Location:  23.72°S, 46.83°W
Report Text: SBSP 221200Z 12008KT 9999 BKN015 18/12 Q1024
Loading
Personal Weather Stations






























Interactive Weather Map
Tropical Storm Tracking
New forecast layout! Learn more

10-Day Weather Forecast

Advertisements
Track Severe Weather on mobile